Bluebell, Utah
Current Conditions -  °F | °C
As of 6:53 AM on Saturday 25 Oct 2014 (Local Time) from KVEL Reporting Station
Clear Clear  
Wind Chill: 37°   Ceiling: Unl
Heat Index: 41°   Visibility: 10mi
Dew Point: 30°   Wind: 6mph
Humidity: 65%   Direction: 270°W
Pressure: 30.24"   Gusts: NA
Location:  40.36°N, 110.22°W
Report Text: KVEL 251253Z AUTO 27005KT 10SM CLR 05/M01 A3024 RMK AO2 SLP219 T00501011
Loading
Personal Weather Stations






























Interactive Weather Map
Tropical Storm Tracking
New forecast layout! Learn more

10-Day Weather Forecast

Advertisements
Track Severe Weather on mobile